createdAt,value
2018-12-16T00:00:53.584Z,101943.75
2018-12-16T00:03:23.443Z,101932.95
2018-12-16T00:05:53.452Z,101929.91
2018-12-16T00:08:23.526Z,101929.27
2018-12-16T00:10:53.549Z,101932.84
2018-12-16T00:13:23.555Z,101926.04
2018-12-16T00:15:53.589Z,101927.58
2018-12-16T00:18:23.621Z,101930.98
2018-12-16T00:20:53.638Z,101923.83
2018-12-16T00:23:23.601Z,101925.95
2018-12-16T00:25:53.605Z,101917.42
2018-12-16T00:28:23.575Z,101922.15
2018-12-16T00:30:52.965Z,101925.69
2018-12-16T00:33:22.389Z,101919.63
2018-12-16T00:35:51.772Z,101921.76
2018-12-16T00:38:21.144Z,101919.78
2018-12-16T00:40:50.478Z,101923.20
2018-12-16T00:43:19.853Z,101921.70
2018-12-16T00:45:56.015Z,101922.09
2018-12-16T00:48:25.397Z,101922.38
2018-12-16T00:50:54.865Z,101921.51
2018-12-16T00:53:24.757Z,101922.41
2018-12-16T00:55:54.746Z,101921.85
2018-12-16T00:58:24.044Z,101927.56
2018-12-16T01:00:53.403Z,101929.33
2018-12-16T01:03:22.736Z,101919.97
2018-12-16T01:05:52.132Z,101924.97
2018-12-16T01:08:21.676Z,101921.13
2018-12-16T01:10:51.031Z,101915.66
2018-12-16T01:13:20.305Z,101909.11
2018-12-16T01:15:49.808Z,101907.39
2018-12-16T01:18:19.139Z,101905.77
2018-12-16T01:20:48.477Z,101895.01
2018-12-16T01:23:17.880Z,101897.09
2018-12-16T01:25:47.213Z,101892.98
2018-12-16T01:28:16.606Z,101894.97
2018-12-16T01:30:45.949Z,101899.14
2018-12-16T01:33:15.339Z,101894.84
2018-12-16T01:35:44.694Z,101891.53
2018-12-16T01:38:14.409Z,101885.41
2018-12-16T01:40:43.730Z,101882.14
2018-12-16T01:43:13.222Z,101880.86
2018-12-16T01:45:42.661Z,101871.34
2018-12-16T01:48:11.965Z,101863.77
2018-12-16T01:50:41.296Z,101860.02
2018-12-16T01:53:10.601Z,101859.76
2018-12-16T01:55:39.932Z,101855.84
2018-12-16T01:58:09.437Z,101854.70
2018-12-16T02:00:38.832Z,101847.55
2018-12-16T02:03:08.214Z,101842.28
2018-12-16T02:05:37.719Z,101842.31
2018-12-16T02:08:07.122Z,101841.88
2018-12-16T02:10:36.475Z,101838.62
2018-12-16T02:13:05.843Z,101830.88
2018-12-16T02:15:35.248Z,101829.32
2018-12-16T02:18:04.762Z,101827.14
2018-12-16T02:20:34.125Z,101817.80
2018-12-16T02:23:03.452Z,101817.11
2018-12-16T02:25:32.794Z,101808.70
2018-12-16T02:28:02.120Z,101805.86
2018-12-16T02:30:31.499Z,101790.05
2018-12-16T02:33:00.843Z,101784.36
2018-12-16T02:35:30.278Z,101777.08
2018-12-16T02:37:59.603Z,101771.55
2018-12-16T02:40:28.890Z,101768.87
2018-12-16T02:42:58.233Z,101767.14
2018-12-16T02:45:27.724Z,101768.70
2018-12-16T02:47:57.769Z,101767.06
2018-12-16T02:50:27.764Z,101761.61
2018-12-16T02:53:04.301Z,101766.61
2018-12-16T02:55:29.170Z,101760.80
2018-12-16T02:57:58.591Z,101756.59
2018-12-16T03:00:28.008Z,101754.74
2018-12-16T03:02:58.309Z,101746.20
2018-12-16T03:05:27.964Z,101736.86
2018-12-16T03:07:57.910Z,101742.87
2018-12-16T03:10:27.975Z,101741.80
2018-12-16T03:12:57.885Z,101731.50
2018-12-16T03:15:27.917Z,101722.66
2018-12-16T03:17:57.992Z,101721.41
2018-12-16T03:20:28.070Z,101708.50
2018-12-16T03:22:57.955Z,101701.22
2018-12-16T03:25:28.095Z,101696.48
2018-12-16T03:27:57.933Z,101705.55
2018-12-16T03:30:27.315Z,101703.09
2018-12-16T03:32:56.671Z,101685.87
2018-12-16T03:35:26.086Z,101678.63
2018-12-16T03:37:55.383Z,101669.44
2018-12-16T03:40:24.781Z,101648.31
2018-12-16T03:42:54.115Z,101646.00
2018-12-16T03:45:26.835Z,101637.66
2018-12-16T03:47:56.162Z,101645.71
2018-12-16T03:50:25.573Z,101649.67
2018-12-16T03:52:54.883Z,101651.13
2018-12-16T03:55:24.223Z,101653.78
2018-12-16T03:57:53.685Z,101650.84
2018-12-16T04:00:23.031Z,101657.94
2018-12-16T04:02:52.383Z,101669.14
2018-12-16T04:05:21.736Z,101674.57
2018-12-16T04:07:51.875Z,101675.46
2018-12-16T04:10:21.238Z,101669.22
2018-12-16T04:12:50.535Z,101657.47
2018-12-16T04:15:19.893Z,101658.33
2018-12-16T04:17:49.244Z,101655.87
2018-12-16T04:20:18.653Z,101652.59
2018-12-16T04:22:48.004Z,101645.58
2018-12-16T04:25:17.416Z,101636.73
2018-12-16T04:27:46.851Z,101631.84
2018-12-16T04:30:16.299Z,101621.49
2018-12-16T04:32:45.687Z,101613.30
2018-12-16T04:35:15.159Z,101614.14
2018-12-16T04:37:44.426Z,101611.91
2018-12-16T04:40:13.905Z,101604.84
2018-12-16T04:42:43.330Z,101601.34
2018-12-16T04:45:12.769Z,101586.08
2018-12-16T04:47:42.090Z,101590.25
2018-12-16T04:50:11.442Z,101586.56
2018-12-16T04:52:40.838Z,101580.25
2018-12-16T04:55:10.153Z,101576.03
2018-12-16T04:57:39.480Z,101579.92
2018-12-16T05:00:09.009Z,101572.48
2018-12-16T05:02:38.379Z,101571.56
2018-12-16T05:05:07.916Z,101568.05
2018-12-16T05:07:37.271Z,101566.34
2018-12-16T05:10:25.524Z,101565.77
2018-12-16T05:12:54.863Z,101562.87
2018-12-16T05:15:24.342Z,101558.61
2018-12-16T05:17:53.858Z,101549.17
2018-12-16T05:20:23.258Z,101540.73
2018-12-16T05:22:52.612Z,101527.98
2018-12-16T05:25:21.975Z,101514.59
2018-12-16T05:27:51.372Z,101515.58
2018-12-16T05:30:20.692Z,101509.78
2018-12-16T05:32:50.048Z,101505.84
2018-12-16T05:35:19.441Z,101491.36
2018-12-16T05:37:48.838Z,101489.71
2018-12-16T05:40:18.171Z,101486.91
2018-12-16T05:42:47.500Z,101492.80
2018-12-16T05:45:16.827Z,101495.56
2018-12-16T05:47:46.248Z,101500.66
2018-12-16T05:50:16.103Z,101500.80
2018-12-16T05:52:45.396Z,101495.17
2018-12-16T05:55:14.814Z,101500.98
2018-12-16T05:57:44.099Z,101500.30
2018-12-16T06:00:13.566Z,101497.62
2018-12-16T06:02:42.908Z,101500.78
2018-12-16T06:05:12.263Z,101494.84
2018-12-16T06:07:42.433Z,101511.29
2018-12-16T06:10:11.975Z,101506.34
2018-12-16T06:12:41.345Z,101507.91
2018-12-16T06:15:10.836Z,101510.30
2018-12-16T06:17:40.300Z,101500.19
2018-12-16T06:20:09.767Z,101508.75
2018-12-16T06:22:39.145Z,101502.75
2018-12-16T06:25:08.699Z,101507.92
2018-12-16T06:27:38.076Z,101506.17
2018-12-16T06:30:08.037Z,101502.43
2018-12-16T06:32:37.366Z,101496.56
2018-12-16T06:35:06.910Z,101489.86
2018-12-16T06:37:36.254Z,101478.95
2018-12-16T06:40:06.160Z,101479.61
2018-12-16T06:42:35.571Z,101471.73
2018-12-16T06:45:05.590Z,101462.19
2018-12-16T06:47:34.874Z,101463.02
2018-12-16T06:50:04.645Z,101459.96
2018-12-16T06:52:33.953Z,101457.27
2018-12-16T06:55:03.441Z,101460.56
2018-12-16T06:57:32.768Z,101448.86
2018-12-16T07:00:02.853Z,101448.45
2018-12-16T07:02:32.746Z,101448.27
2018-12-16T07:05:02.794Z,101446.13
2018-12-16T07:07:32.793Z,101444.27
2018-12-16T07:10:02.840Z,101441.62
2018-12-16T07:12:32.845Z,101446.26
2018-12-16T07:15:02.917Z,101449.25
2018-12-16T07:17:32.979Z,101452.45
2018-12-16T07:20:02.963Z,101448.71
2018-12-16T07:22:33.000Z,101455.13
2018-12-16T07:25:02.887Z,101446.89
2018-12-16T07:27:32.883Z,101454.52
2018-12-16T07:30:03.039Z,101447.24
2018-12-16T07:32:33.003Z,101452.81
2018-12-16T07:35:03.008Z,101451.70
2018-12-16T07:37:33.005Z,101445.89
2018-12-16T07:40:03.246Z,101436.48
2018-12-16T07:42:33.045Z,101448.82
2018-12-16T07:45:03.134Z,101446.75
2018-12-16T07:47:33.070Z,101435.44
2018-12-16T07:50:03.131Z,101434.80
2018-12-16T07:52:33.634Z,101436.03
2018-12-16T07:55:04.560Z,101440.58
2018-12-16T07:57:33.923Z,101440.37
2018-12-16T08:00:04.399Z,101432.50
2018-12-16T08:02:33.847Z,101434.22
2018-12-16T08:05:04.075Z,101434.05
2018-12-16T08:07:34.066Z,101434.76
2018-12-16T08:10:04.248Z,101439.11
2018-12-16T08:12:34.028Z,101439.38
2018-12-16T08:15:04.275Z,101444.68
2018-12-16T08:17:34.187Z,101445.95
2018-12-16T08:20:04.574Z,101441.36
2018-12-16T08:22:34.676Z,101438.25
2018-12-16T08:25:05.325Z,101431.83
2018-12-16T08:27:34.777Z,101434.14
2018-12-16T08:30:06.318Z,101431.78
2018-12-16T08:32:35.553Z,101432.96
2018-12-16T08:35:05.489Z,101433.08
2018-12-16T08:37:34.789Z,101439.56
2018-12-16T08:40:05.240Z,101435.00
2018-12-16T08:42:34.701Z,101441.05
2018-12-16T08:45:06.417Z,101435.48
2018-12-16T08:47:36.180Z,101435.64
2018-12-16T08:50:07.561Z,101433.97
2018-12-16T08:52:37.370Z,101438.06
2018-12-16T08:55:07.035Z,101435.64
2018-12-16T08:57:36.346Z,101430.72
2018-12-16T09:00:06.495Z,101421.52
2018-12-16T09:02:36.541Z,101424.42
2018-12-16T09:05:06.034Z,101423.08
2018-12-16T09:07:37.525Z,101420.88
2018-12-16T09:10:08.216Z,101419.33
2018-12-16T09:12:37.700Z,101413.66
2018-12-16T09:15:07.710Z,101412.52
2018-12-16T09:17:36.957Z,101405.45
2018-12-16T09:20:06.964Z,101395.92
2018-12-16T09:22:36.427Z,101387.15
2018-12-16T09:25:07.568Z,101388.15
2018-12-16T09:27:36.919Z,101384.73
2018-12-16T09:43:17.635Z,101368.28
2018-12-16T09:48:31.232Z,101365.39
2018-12-16T09:51:00.566Z,101360.91
2018-12-16T09:53:29.867Z,101367.42
2018-12-16T09:55:59.233Z,101374.55
2018-12-16T09:58:28.518Z,101383.71
2018-12-16T10:00:57.841Z,101375.89
2018-12-16T10:03:27.132Z,101375.30
2018-12-16T10:05:56.379Z,101370.84
2018-12-16T10:08:25.771Z,101377.66
2018-12-16T10:10:55.174Z,101376.99
2018-12-16T10:13:24.550Z,101383.27
2018-12-16T10:15:53.920Z,101372.66
2018-12-16T10:18:23.285Z,101359.87
2018-12-16T10:20:53.694Z,101366.44
2018-12-16T10:23:23.038Z,101370.62
2018-12-16T10:25:52.356Z,101373.97
2018-12-16T10:28:21.694Z,101378.80
2018-12-16T10:30:50.989Z,101382.24
2018-12-16T10:33:20.357Z,101378.06
2018-12-16T10:35:49.769Z,101380.55
2018-12-16T10:38:19.138Z,101374.59
2018-12-16T10:40:48.544Z,101370.64
2018-12-16T10:43:17.879Z,101361.16
2018-12-16T10:45:47.235Z,101357.52
2018-12-16T10:48:16.550Z,101358.16
2018-12-16T10:50:45.870Z,101348.51
2018-12-16T10:53:15.235Z,101345.25
2018-12-16T10:55:44.645Z,101343.89
2018-12-16T10:58:13.970Z,101338.13
2018-12-16T11:00:48.649Z,101333.05
2018-12-16T11:03:18.002Z,101328.55
2018-12-16T11:05:47.346Z,101326.81
2018-12-16T11:08:16.692Z,101320.28
2018-12-16T11:10:46.038Z,101318.55
2018-12-16T11:13:15.475Z,101315.39
2018-12-16T11:15:44.780Z,101317.65
2018-12-16T11:18:14.136Z,101317.09
2018-12-16T11:20:43.447Z,101318.16
2018-12-16T11:23:12.891Z,101305.76
2018-12-16T11:25:51.258Z,101304.09
2018-12-16T11:28:20.652Z,101305.22
2018-12-16T11:30:50.020Z,101303.12
2018-12-16T11:33:19.378Z,101308.09
2018-12-16T11:35:48.659Z,101299.55
2018-12-16T11:38:18.192Z,101290.05
2018-12-16T11:40:47.507Z,101297.54
2018-12-16T11:43:16.788Z,101291.31
2018-12-16T11:45:46.176Z,101291.22
2018-12-16T11:48:15.604Z,101288.81
2018-12-16T11:50:44.955Z,101279.34
2018-12-16T11:53:14.287Z,101282.59
2018-12-16T11:55:43.698Z,101277.98
2018-12-16T11:58:13.035Z,101276.23
2018-12-16T12:00:42.492Z,101275.28
2018-12-16T12:03:11.824Z,101275.84
2018-12-16T12:05:41.403Z,101271.55
2018-12-16T12:08:11.295Z,101273.36
2018-12-16T12:10:41.404Z,101271.27
2018-12-16T12:13:11.296Z,101267.78
2018-12-16T12:15:41.567Z,101259.38
2018-12-16T12:18:11.413Z,101263.28
2018-12-16T12:20:42.159Z,101257.61
2018-12-16T12:23:11.487Z,101260.27
2018-12-16T12:25:41.630Z,101255.52
2018-12-16T12:28:11.909Z,101260.43
2018-12-16T12:30:41.598Z,101251.98
2018-12-16T12:33:11.854Z,101262.20
2018-12-16T12:35:41.928Z,101265.22
2018-12-16T12:38:11.822Z,101262.15
2018-12-16T12:56:38.675Z,101246.95
2018-12-16T13:12:21.158Z,101229.27
2018-12-16T13:17:36.916Z,101246.15
2018-12-16T13:20:06.959Z,101243.23
2018-12-16T13:22:36.289Z,101243.67
2018-12-16T13:25:22.672Z,101245.20
2018-12-16T13:27:52.106Z,101245.50
2018-12-16T13:30:21.463Z,101243.81
2018-12-16T13:32:50.793Z,101245.02
2018-12-16T13:35:20.152Z,101245.55
2018-12-16T13:37:49.523Z,101241.62
2018-12-16T13:40:18.881Z,101238.23
2018-12-16T13:42:48.215Z,101236.87
2018-12-16T13:45:17.739Z,101236.85
2018-12-16T13:47:47.069Z,101237.47
2018-12-16T13:50:16.392Z,101237.03
2018-12-16T13:52:45.735Z,101241.55
2018-12-16T13:55:15.051Z,101241.73
2018-12-16T13:57:44.919Z,101241.28
2018-12-16T14:00:14.501Z,101247.22
2018-12-16T14:02:43.811Z,101242.84
2018-12-16T14:05:13.062Z,101250.98
2018-12-16T14:07:43.266Z,101256.23
2018-12-16T14:10:12.702Z,101243.70
2018-12-16T14:12:42.741Z,101251.58
2018-12-16T14:15:12.865Z,101253.74
2018-12-16T14:17:42.867Z,101257.36
2018-12-16T14:20:13.028Z,101256.08
2018-12-16T14:22:42.970Z,101255.88
2018-12-16T14:25:13.258Z,101252.27
2018-12-16T14:27:42.868Z,101252.89
2018-12-16T14:30:13.471Z,101243.28
2018-12-16T14:32:43.027Z,101234.20
2018-12-16T14:35:13.862Z,101242.25
2018-12-16T14:37:43.183Z,101240.02
2018-12-16T14:40:13.076Z,101239.27
2018-12-16T14:42:43.183Z,101243.61
2018-12-16T14:45:13.684Z,101242.39
2018-12-16T14:47:43.638Z,101240.27
2018-12-16T14:50:13.519Z,101243.80
2018-12-16T14:52:43.720Z,101248.11
2018-12-16T14:55:13.510Z,101254.27
2018-12-16T14:57:44.010Z,101250.90
2018-12-16T15:00:14.141Z,101252.00
2018-12-16T15:02:43.886Z,101257.86
2018-12-16T15:05:14.046Z,101262.34
2018-12-16T15:07:43.829Z,101264.17
2018-12-16T15:10:13.954Z,101266.73
2018-12-16T15:12:44.107Z,101267.33
2018-12-16T15:15:14.710Z,101260.94
2018-12-16T15:17:44.187Z,101256.84
2018-12-16T15:20:14.122Z,101258.94
2018-12-16T15:22:44.212Z,101250.84
2018-12-16T15:25:15.703Z,101250.48
2018-12-16T15:27:45.138Z,101255.91
2018-12-16T15:30:14.584Z,101250.72
2018-12-16T15:32:44.418Z,101260.64
2018-12-16T15:35:14.611Z,101264.80
2018-12-16T15:37:44.650Z,101273.66
2018-12-16T15:40:14.789Z,101276.80
2018-12-16T15:42:44.668Z,101280.03
2018-12-16T15:45:14.825Z,101287.37
2018-12-16T15:47:44.723Z,101296.53
2018-12-16T15:50:14.926Z,101298.34
2018-12-16T15:52:44.945Z,101295.11
2018-12-16T15:55:14.998Z,101301.64
2018-12-16T15:57:45.070Z,101302.73
2018-12-16T16:00:15.207Z,101312.43
2018-12-16T16:02:45.095Z,101310.56
2018-12-16T16:05:15.257Z,101311.23
2018-12-16T16:07:45.238Z,101310.69
2018-12-16T16:10:15.223Z,101306.23
2018-12-16T16:12:45.293Z,101306.92
2018-12-16T16:15:15.252Z,101306.86
2018-12-16T16:17:45.266Z,101293.75
2018-12-16T16:20:14.780Z,101293.12
2018-12-16T16:22:44.121Z,101288.53
2018-12-16T16:25:13.575Z,101288.00
2018-12-16T16:27:42.873Z,101278.69
2018-12-16T16:30:12.198Z,101284.91
2018-12-16T16:32:41.729Z,101286.42
2018-12-16T16:35:11.032Z,101284.42
2018-12-16T16:37:40.526Z,101288.89
2018-12-16T16:40:10.034Z,101291.73
2018-12-16T16:42:39.374Z,101293.64
2018-12-16T16:45:08.824Z,101292.50
2018-12-16T16:47:38.226Z,101293.94
2018-12-16T16:50:07.626Z,101294.14
2018-12-16T16:52:36.955Z,101291.03
2018-12-16T16:55:07.048Z,101291.33
2018-12-16T16:57:36.426Z,101288.41
2018-12-16T17:00:07.722Z,101281.18
2018-12-16T17:02:37.143Z,101289.27
2018-12-16T17:08:01.898Z,101295.71
2018-12-16T17:10:31.297Z,101296.59
2018-12-16T17:13:00.631Z,101299.61
2018-12-16T17:15:30.012Z,101301.26
2018-12-16T17:17:59.395Z,101310.00
2018-12-16T17:20:28.680Z,101307.42
2018-12-16T17:22:58.050Z,101319.48
2018-12-16T17:25:27.380Z,101323.28
2018-12-16T17:27:56.785Z,101324.51
2018-12-16T17:30:26.088Z,101323.77
2018-12-16T17:32:55.365Z,101324.67
2018-12-16T17:35:24.848Z,101330.97
2018-12-16T17:37:54.172Z,101323.11
2018-12-16T17:40:23.681Z,101322.03
2018-12-16T17:42:53.087Z,101321.92
2018-12-16T17:45:22.544Z,101318.39
2018-12-16T17:47:51.908Z,101322.19
2018-12-16T17:50:21.210Z,101324.00
2018-12-16T17:52:50.551Z,101323.53
2018-12-16T17:55:19.862Z,101318.46
2018-12-16T17:57:49.322Z,101320.07
2018-12-16T18:00:19.083Z,101312.39
2018-12-16T18:02:48.718Z,101317.14
2018-12-16T18:05:24.026Z,101323.87
2018-12-16T18:07:53.307Z,101331.61
2018-12-16T18:23:37.234Z,101317.83
2018-12-16T18:28:48.029Z,101314.20
2018-12-16T18:31:17.494Z,101316.01
2018-12-16T18:33:46.956Z,101313.39
2018-12-16T18:36:16.285Z,101312.88
2018-12-16T18:38:45.739Z,101312.27
2018-12-16T18:41:15.199Z,101327.74
2018-12-16T18:43:44.658Z,101335.37
2018-12-16T18:46:14.405Z,101332.68
2018-12-16T18:48:44.221Z,101339.65
2018-12-16T18:51:13.545Z,101336.13
2018-12-16T18:53:42.895Z,101339.11
2018-12-16T18:56:12.275Z,101337.66
2018-12-16T18:58:41.535Z,101346.24
2018-12-16T19:01:10.995Z,101353.94
2018-12-16T19:03:40.286Z,101347.83
2018-12-16T19:06:09.594Z,101356.45
2018-12-16T19:08:38.916Z,101362.92
2018-12-16T19:11:08.236Z,101367.86
2018-12-16T19:13:37.552Z,101368.52
2018-12-16T19:16:06.895Z,101369.80
2018-12-16T19:18:36.183Z,101361.38
2018-12-16T19:21:05.647Z,101365.95
2018-12-16T19:23:35.302Z,101363.09
2018-12-16T19:26:04.908Z,101358.08
2018-12-16T19:28:34.502Z,101354.64
2018-12-16T19:31:04.296Z,101349.95
2018-12-16T19:33:33.955Z,101348.97
2018-12-16T19:36:03.570Z,101347.84
2018-12-16T19:38:33.291Z,101350.64
2018-12-16T19:41:02.901Z,101349.34
2018-12-16T19:43:32.576Z,101347.40
2018-12-16T19:46:02.880Z,101348.70
2018-12-16T19:48:32.521Z,101353.66
2018-12-16T19:51:02.319Z,101361.86
2018-12-16T19:53:31.969Z,101362.81
2018-12-16T19:56:01.620Z,101369.08
2018-12-16T19:58:38.306Z,101368.15
2018-12-16T20:01:07.973Z,101373.03
2018-12-16T20:03:42.032Z,101366.91
2018-12-16T20:06:16.718Z,101369.97
2018-12-16T20:08:46.347Z,101368.52
2018-12-16T20:11:16.457Z,101369.16
2018-12-16T20:13:46.140Z,101379.02
2018-12-16T20:16:15.813Z,101383.25
2018-12-16T20:18:46.498Z,101381.75
2018-12-16T20:21:16.124Z,101384.48
2018-12-16T20:23:45.687Z,101389.11
2018-12-16T20:26:15.407Z,101392.57
2018-12-16T20:28:45.018Z,101398.99
2018-12-16T20:31:14.707Z,101404.03
2018-12-16T20:33:44.392Z,101409.75
2018-12-16T20:36:14.627Z,101411.27
2018-12-16T20:38:44.258Z,101413.48
2018-12-16T20:41:13.949Z,101410.45
2018-12-16T20:43:43.531Z,101416.31
2018-12-16T20:46:13.004Z,101411.97
2018-12-16T20:48:42.329Z,101416.09
2018-12-16T20:51:11.792Z,101418.25
2018-12-16T20:53:41.379Z,101419.42
2018-12-16T20:56:11.549Z,101416.05
2018-12-16T20:58:41.010Z,101414.77
2018-12-16T21:01:10.459Z,101419.98
2018-12-16T21:03:39.745Z,101427.33
2018-12-16T21:06:09.083Z,101425.91
2018-12-16T21:08:38.354Z,101431.05
2018-12-16T21:11:12.847Z,101433.33
2018-12-16T21:13:47.296Z,101435.53
2018-12-16T21:16:21.990Z,101430.08
2018-12-16T21:18:51.659Z,101430.14
2018-12-16T21:21:21.203Z,101426.34
2018-12-16T21:23:51.248Z,101437.38
2018-12-16T21:26:21.274Z,101429.48
2018-12-16T21:28:51.136Z,101443.86
2018-12-16T21:31:21.165Z,101445.68
2018-12-16T21:33:51.251Z,101445.81
2018-12-16T21:36:21.190Z,101443.95
2018-12-16T21:38:51.217Z,101449.86
2018-12-16T21:41:21.359Z,101448.58
2018-12-16T21:43:51.521Z,101438.28
2018-12-16T21:46:21.376Z,101446.72
2018-12-16T21:48:51.346Z,101444.19
2018-12-16T21:51:21.297Z,101443.59
2018-12-16T21:53:51.295Z,101450.25
2018-12-16T21:56:21.710Z,101440.73
2018-12-16T21:58:51.679Z,101444.52
2018-12-16T22:01:21.748Z,101446.15
2018-12-16T22:03:51.694Z,101454.25
2018-12-16T22:06:21.760Z,101460.84
2018-12-16T22:08:51.887Z,101458.27
2018-12-16T22:11:21.923Z,101462.52
2018-12-16T22:13:53.102Z,101466.33
2018-12-16T22:16:22.449Z,101462.88
2018-12-16T22:18:51.963Z,101451.48
2018-12-16T22:21:22.060Z,101449.87
2018-12-16T22:23:52.270Z,101451.74
2018-12-16T22:26:22.285Z,101457.53
2018-12-16T22:28:52.338Z,101452.81
2018-12-16T22:31:22.287Z,101454.95
2018-12-16T22:33:52.352Z,101460.41
2018-12-16T22:36:22.392Z,101466.54
2018-12-16T22:38:52.408Z,101470.61
2018-12-16T22:41:22.295Z,101464.88
2018-12-16T22:43:52.799Z,101471.13
2018-12-16T22:46:22.929Z,101467.87
2018-12-16T22:48:53.192Z,101464.60
2018-12-16T22:51:23.103Z,101459.98
2018-12-16T22:53:53.135Z,101454.80
2018-12-16T22:56:23.187Z,101457.14
2018-12-16T22:58:54.534Z,101458.01
2018-12-16T23:01:24.118Z,101463.04
2018-12-16T23:03:55.871Z,101467.87
2018-12-16T23:06:25.409Z,101466.69
2018-12-16T23:08:54.705Z,101465.03
2018-12-16T23:11:24.269Z,101472.48
2018-12-16T23:13:54.333Z,101474.84
2018-12-16T23:16:24.281Z,101484.34
2018-12-16T23:18:54.429Z,101483.52
2018-12-16T23:21:24.343Z,101482.84
2018-12-16T23:23:54.425Z,101484.81
2018-12-16T23:26:24.445Z,101485.66
2018-12-16T23:28:54.520Z,101489.21
2018-12-16T23:31:24.599Z,101496.81
2018-12-16T23:33:54.622Z,101501.42
2018-12-16T23:36:24.588Z,101506.84
2018-12-16T23:38:54.638Z,101504.32
2018-12-16T23:41:24.658Z,101505.77
2018-12-16T23:43:55.072Z,101495.84
2018-12-16T23:46:25.119Z,101496.44
2018-12-16T23:48:55.135Z,101503.42
2018-12-16T23:51:25.237Z,101495.78
2018-12-16T23:53:55.167Z,101506.99
2018-12-16T23:56:25.610Z,101512.03
2018-12-16T23:58:55.602Z,101511.66
